Time,TemperatureF,DewpointF,PressureIn,WindDirection,WindDirectionDegrees,WindSpeedMPH,WindSpeedGustMPH,Humidity,HourlyPrecipIn,Conditions,Clouds,dailyrainin,SoftwareType,DateUTC
2013-07-27 00:04:00,58.7,53.8,29.24,North,0,0.0,0.0,84,0.00,,,0.00,WUHU216HW,2013-07-27 05:04:00,
2013-07-27 00:09:00,58.7,54.2,29.24,North,0,0.0,0.0,85,0.00,,,0.00,WUHU216HW,2013-07-27 05:09:00,
2013-07-27 00:14:00,58.7,54.2,29.24,North,0,0.0,0.0,85,0.00,,,0.00,WUHU216HW,2013-07-27 05:14:00,
2013-07-27 00:19:00,58.5,54.0,29.24,North,0,0.0,0.0,85,0.00,,,0.00,WUHU216HW,2013-07-27 05:19:00,
2013-07-27 00:24:00,58.5,54.4,29.24,North,0,0.0,0.0,86,0.00,,,0.00,WUHU216HW,2013-07-27 05:24:00,
2013-07-27 00:29:00,58.3,54.2,29.24,North,0,0.0,0.0,86,0.00,,,0.00,WUHU216HW,2013-07-27 05:29:00,
2013-07-27 00:34:00,58.3,54.2,29.24,North,0,0.0,0.0,86,0.00,,,0.00,WUHU216HW,2013-07-27 05:34:00,
2013-07-27 00:39:00,58.3,54.2,29.24,North,0,0.0,0.0,86,0.00,,,0.00,WUHU216HW,2013-07-27 05:39:00,
2013-07-27 00:44:00,58.1,54.3,29.23,North,0,0.0,0.0,87,0.00,,,0.00,WUHU216HW,2013-07-27 05:44:00,
2013-07-27 00:49:00,58.1,54.3,29.23,North,0,0.0,0.0,87,0.00,,,0.00,WUHU216HW,2013-07-27 05:49:00,
2013-07-27 00:54:00,58.0,54.1,29.24,North,0,0.0,0.9,87,0.00,,,0.00,WUHU216HW,2013-07-27 05:54:00,
2013-07-27 00:59:00,58.0,54.1,29.24,North,0,0.0,0.9,87,0.00,,,0.00,WUHU216HW,2013-07-27 05:59:00,
2013-07-27 01:04:00,58.0,54.1,29.24,NNW,338,0.0,1.1,87,0.00,,,0.00,WUHU216HW,2013-07-27 06:04:00,
2013-07-27 01:09:00,58.0,54.1,29.23,NNW,338,0.0,1.1,87,0.00,,,0.00,WUHU216HW,2013-07-27 06:09:00,
2013-07-27 01:15:00,57.8,54.3,29.23,NNW,338,0.0,0.2,88,0.00,,,0.00,WUHU216HW,2013-07-27 06:15:00,
2013-07-27 01:20:00,57.8,54.3,29.23,NNW,338,0.0,0.0,88,0.00,,,0.00,WUHU216HW,2013-07-27 06:20:00,
2013-07-27 01:25:00,57.6,54.1,29.23,NNW,338,0.0,0.0,88,0.00,,,0.00,WUHU216HW,2013-07-27 06:25:00,
2013-07-27 01:30:00,57.6,54.1,29.23,NNW,338,0.0,0.0,88,0.00,,,0.00,WUHU216HW,2013-07-27 06:30:00,
2013-07-27 01:35:00,57.4,53.6,29.23,NNW,338,0.0,0.0,87,0.00,,,0.00,WUHU216HW,2013-07-27 06:35:00,
2013-07-27 01:40:00,57.4,53.6,29.23,NNW,338,0.0,0.4,87,0.00,,,0.00,WUHU216HW,2013-07-27 06:40:00,
2013-07-27 01:45:00,57.2,53.4,29.23,NNW,338,0.0,0.4,87,0.00,,,0.00,WUHU216HW,2013-07-27 06:45:00,
2013-07-27 01:50:00,57.2,53.4,29.23,NNW,338,0.0,0.0,87,0.00,,,0.00,WUHU216HW,2013-07-27 06:50:00,
2013-07-27 01:55:00,57.2,53.4,29.23,NNW,338,0.0,0.0,87,0.00,,,0.00,WUHU216HW,2013-07-27 06:55:00,
2013-07-27 02:00:00,57.2,53.4,29.23,NNW,338,1.1,1.1,87,0.00,,,0.00,WUHU216HW,2013-07-27 07:00:00,
2013-07-27 02:05:00,57.1,53.6,29.23,NNW,338,0.0,1.1,88,0.00,,,0.00,WUHU216HW,2013-07-27 07:05:00,
2013-07-27 02:10:00,57.1,53.6,29.23,NNW,338,0.4,0.7,88,0.00,,,0.00,WUHU216HW,2013-07-27 07:10:00,
2013-07-27 02:16:00,56.9,53.4,29.23,NNW,338,0.0,0.9,88,0.00,,,0.00,WUHU216HW,2013-07-27 07:16:00,
2013-07-27 02:21:00,56.9,53.4,29.22,NNW,338,0.9,0.9,88,0.00,,,0.00,WUHU216HW,2013-07-27 07:21:00,
2013-07-27 02:26:00,56.9,53.4,29.22,NNW,338,0.0,0.9,88,0.00,,,0.00,WUHU216HW,2013-07-27 07:26:00,
2013-07-27 02:31:00,56.9,53.6,29.22,NNW,338,0.0,0.9,89,0.00,,,0.00,WUHU216HW,2013-07-27 07:31:00,
2013-07-27 02:36:00,56.9,53.4,29.22,NNW,338,0.0,0.4,88,0.00,,,0.00,WUHU216HW,2013-07-27 07:36:00,
2013-07-27 02:41:00,56.9,53.4,29.22,NNW,338,0.0,0.9,88,0.00,,,0.00,WUHU216HW,2013-07-27 07:41:00,
2013-07-27 02:46:00,56.9,53.6,29.22,NNW,338,0.0,0.9,89,0.00,,,0.00,WUHU216HW,2013-07-27 07:46:00,
2013-07-27 02:51:00,56.9,53.6,29.22,NNW,338,0.0,0.2,89,0.00,,,0.00,WUHU216HW,2013-07-27 07:51:00,
2013-07-27 02:57:00,56.9,53.6,29.22,NNW,338,0.0,0.7,89,0.00,,,0.00,WUHU216HW,2013-07-27 07:57:00,
2013-07-27 03:02:00,56.9,53.6,29.22,NNW,338,0.7,0.7,89,0.00,,,0.00,WUHU216HW,2013-07-27 08:02:00,
2013-07-27 03:07:00,56.9,53.6,29.22,NNW,338,0.4,1.1,89,0.00,,,0.00,WUHU216HW,2013-07-27 08:07:00,
2013-07-27 03:12:00,56.9,53.6,29.22,NNW,338,0.0,1.1,89,0.00,,,0.00,WUHU216HW,2013-07-27 08:12:00,
2013-07-27 03:17:00,56.9,53.6,29.22,NNW,338,1.1,1.1,89,0.00,,,0.00,WUHU216HW,2013-07-27 08:17:00,
2013-07-27 03:22:00,56.9,53.6,29.22,NNW,338,0.0,1.1,89,0.00,,,0.00,WUHU216HW,2013-07-27 08:22:00,
2013-07-27 03:27:00,56.9,53.6,29.22,NW,315,0.4,1.1,89,0.00,,,0.00,WUHU216HW,2013-07-27 08:27:00,
2013-07-27 03:32:00,56.9,53.6,29.22,NW,315,1.8,1.8,89,0.00,,,0.00,WUHU216HW,2013-07-27 08:32:00,
2013-07-27 03:37:00,57.1,54.2,29.22,NW,315,1.3,2.0,90,0.00,,,0.00,WUHU216HW,2013-07-27 08:37:00,
2013-07-27 03:42:00,57.1,54.2,29.22,North,0,0.7,2.0,90,0.00,,,0.00,WUHU216HW,2013-07-27 08:42:00,
2013-07-27 03:47:00,57.1,54.2,29.22,NNW,338,0.0,1.6,90,0.00,,,0.00,WUHU216HW,2013-07-27 08:47:00,
2013-07-27 03:52:00,57.2,54.0,29.22,WNW,293,0.4,1.6,89,0.00,,,0.00,WUHU216HW,2013-07-27 08:52:00,
2013-07-27 03:57:00,57.2,54.0,29.22,WNW,293,0.0,2.2,89,0.00,,,0.00,WUHU216HW,2013-07-27 08:57:00,
2013-07-27 04:03:00,57.2,54.0,29.22,NNW,338,0.7,2.2,89,0.00,,,0.00,WUHU216HW,2013-07-27 09:03:00,
2013-07-27 04:08:00,57.2,54.0,29.22,NNW,338,0.4,1.8,89,0.00,,,0.00,WUHU216HW,2013-07-27 09:08:00,
2013-07-27 04:13:00,57.2,54.0,29.22,NW,315,0.2,2.7,89,0.00,,,0.00,WUHU216HW,2013-07-27 09:13:00,
2013-07-27 04:18:00,57.1,53.8,29.22,NW,315,0.2,2.7,89,0.00,,,0.00,WUHU216HW,2013-07-27 09:18:00,
2013-07-27 04:23:00,56.9,53.6,29.22,WNW,293,0.9,1.1,89,0.00,,,0.00,WUHU216HW,2013-07-27 09:23:00,
2013-07-27 04:28:00,56.9,53.6,29.23,NW,315,1.1,1.1,89,0.00,,,0.00,WUHU216HW,2013-07-27 09:28:00,
2013-07-27 04:33:00,56.7,53.8,29.23,NW,315,0.4,1.1,90,0.00,,,0.00,WUHU216HW,2013-07-27 09:33:00,
2013-07-27 04:38:00,56.7,53.8,29.23,WNW,293,0.0,2.2,90,0.00,,,0.00,WUHU216HW,2013-07-27 09:38:00,
2013-07-27 04:43:00,56.7,53.8,29.23,NNW,338,0.2,2.2,90,0.00,,,0.00,WUHU216HW,2013-07-27 09:43:00,
2013-07-27 04:48:00,56.7,53.8,29.23,North,0,0.4,1.6,90,0.00,,,0.00,WUHU216HW,2013-07-27 09:48:00,
2013-07-27 04:53:00,56.5,53.6,29.23,WNW,293,0.0,1.6,90,0.00,,,0.00,WUHU216HW,2013-07-27 09:53:00,
2013-07-27 04:58:00,56.5,53.6,29.24,WNW,293,0.0,1.6,90,0.00,,,0.00,WUHU216HW,2013-07-27 09:58:00,
2013-07-27 05:03:00,56.5,53.6,29.24,NW,315,0.4,1.6,90,0.00,,,0.00,WUHU216HW,2013-07-27 10:03:00,
2013-07-27 05:08:00,56.3,53.5,29.24,NW,315,0.7,1.6,90,0.00,,,0.00,WUHU216HW,2013-07-27 10:08:00,
2013-07-27 05:13:00,56.3,53.7,29.24,WNW,293,0.4,1.8,91,0.00,,,0.00,WUHU216HW,2013-07-27 10:13:00,
2013-07-27 05:18:00,56.3,53.7,29.24,North,0,0.7,2.2,91,0.00,,,0.00,WUHU216HW,2013-07-27 10:18:00,
2013-07-27 05:24:00,56.2,53.6,29.24,NNW,338,0.4,2.5,91,0.00,,,0.00,WUHU216HW,2013-07-27 10:24:00,
2013-07-27 05:29:00,56.2,53.6,29.24,WSW,248,0.0,2.5,91,0.00,,,0.00,WUHU216HW,2013-07-27 10:29:00,
2013-07-27 05:34:00,56.2,53.6,29.24,NNW,338,0.2,1.8,91,0.00,,,0.00,WUHU216HW,2013-07-27 10:34:00,
2013-07-27 05:39:00,56.2,53.6,29.24,NNW,338,0.0,1.6,91,0.00,,,0.00,WUHU216HW,2013-07-27 10:39:00,
2013-07-27 05:44:00,56.0,53.4,29.25,NW,315,1.1,1.6,91,0.00,,,0.00,WUHU216HW,2013-07-27 10:44:00,
2013-07-27 05:49:00,56.0,53.4,29.25,NNW,338,1.3,1.6,91,0.00,,,0.00,WUHU216HW,2013-07-27 10:49:00,
2013-07-27 05:54:00,56.2,53.6,29.25,NNE,23,1.1,2.0,91,0.00,,,0.00,WUHU216HW,2013-07-27 10:54:00,
2013-07-27 05:59:00,56.2,53.6,29.25,North,0,0.9,4.0,91,0.00,,,0.00,WUHU216HW,2013-07-27 10:59:00,
2013-07-27 06:04:00,56.0,53.4,29.25,NNW,338,1.1,4.0,91,0.00,,,0.00,WUHU216HW,2013-07-27 11:04:00,
2013-07-27 06:09:00,56.0,53.4,29.26,NW,315,1.1,2.0,91,0.00,,,0.00,WUHU216HW,2013-07-27 11:09:00,
2013-07-27 06:14:00,56.0,53.4,29.26,NW,315,1.3,2.5,91,0.00,,,0.00,WUHU216HW,2013-07-27 11:14:00,
2013-07-27 06:19:00,56.2,53.6,29.26,North,0,1.1,4.0,91,0.00,,,0.00,WUHU216HW,2013-07-27 11:19:00,
2013-07-27 06:25:00,56.2,53.6,29.26,WNW,293,1.1,4.5,91,0.00,,,0.00,WUHU216HW,2013-07-27 11:25:00,
2013-07-27 06:30:00,56.2,53.6,29.26,NW,315,2.0,4.5,91,0.00,,,0.00,WUHU216HW,2013-07-27 11:30:00,
2013-07-27 06:35:00,56.2,53.6,29.26,West,270,1.3,2.5,91,0.00,,,0.00,WUHU216HW,2013-07-27 11:35:00,
2013-07-27 06:40:00,56.2,53.6,29.26,NW,315,1.1,2.5,91,0.00,,,0.00,WUHU216HW,2013-07-27 11:40:00,
2013-07-27 06:45:00,56.0,53.4,29.26,West,270,3.6,3.6,91,0.00,,,0.00,WUHU216HW,2013-07-27 11:45:00,
2013-07-27 06:50:00,56.2,53.6,29.26,WNW,293,0.4,3.6,91,0.00,,,0.00,WUHU216HW,2013-07-27 11:50:00,
2013-07-27 06:55:00,56.0,53.4,29.26,WNW,293,1.8,3.6,91,0.00,,,0.00,WUHU216HW,2013-07-27 11:55:00,
2013-07-27 07:00:00,56.0,53.4,29.25,NW,315,0.4,2.0,91,0.00,,,0.00,WUHU216HW,2013-07-27 12:00:00,
2013-07-27 07:05:00,56.2,53.6,29.26,NW,315,0.9,2.0,91,0.00,,,0.00,WUHU216HW,2013-07-27 12:05:00,
2013-07-27 07:10:00,56.3,53.7,29.26,NNW,338,1.6,2.0,91,0.00,,,0.00,WUHU216HW,2013-07-27 12:10:00,
2013-07-27 07:15:00,56.5,53.9,29.26,North,0,1.1,3.4,91,0.00,,,0.00,WUHU216HW,2013-07-27 12:15:00,
2013-07-27 07:20:00,56.7,54.1,29.26,WNW,293,1.1,4.5,91,0.00,,,0.00,WUHU216HW,2013-07-27 12:20:00,
2013-07-27 07:26:00,56.9,54.0,29.26,SW,225,1.8,4.5,90,0.00,,,0.00,WUHU216HW,2013-07-27 12:26:00,
2013-07-27 07:31:00,57.2,54.4,29.26,NNW,338,1.1,3.4,90,0.00,,,0.00,WUHU216HW,2013-07-27 12:31:00,
2013-07-27 07:36:00,57.2,54.4,29.26,West,270,1.8,2.7,90,0.00,,,0.00,WUHU216HW,2013-07-27 12:36:00,
2013-07-27 07:41:00,57.4,54.2,29.26,NNW,338,1.8,4.0,89,0.00,,,0.00,WUHU216HW,2013-07-27 12:41:00,
2013-07-27 07:46:00,57.6,54.4,29.26,NW,315,3.4,4.7,89,0.00,,,0.00,WUHU216HW,2013-07-27 12:46:00,
2013-07-27 07:51:00,57.8,54.5,29.26,NNW,338,0.4,4.7,89,0.00,,,0.00,WUHU216HW,2013-07-27 12:51:00,
2013-07-27 07:56:00,58.0,54.5,29.27,West,270,3.4,3.4,88,0.00,,,0.00,WUHU216HW,2013-07-27 12:56:00,
2013-07-27 08:01:00,58.1,54.6,29.27,NNW,338,1.1,7.2,88,0.00,,,0.00,WUHU216HW,2013-07-27 13:01:00,
2013-07-27 08:06:00,58.5,55.0,29.27,WNW,293,2.7,7.2,88,0.00,,,0.00,WUHU216HW,2013-07-27 13:06:00,
2013-07-27 08:12:00,58.7,55.2,29.27,WNW,293,2.5,4.7,88,0.00,,,0.00,WUHU216HW,2013-07-27 13:12:00,
2013-07-27 08:17:00,58.9,55.0,29.27,NW,315,2.0,5.6,87,0.00,,,0.00,WUHU216HW,2013-07-27 13:17:00,
2013-07-27 08:22:00,59.2,55.1,29.27,West,270,0.4,5.6,86,0.00,,,0.00,WUHU216HW,2013-07-27 13:22:00,
2013-07-27 08:27:00,59.4,54.9,29.27,NW,315,1.3,4.9,85,0.00,,,0.00,WUHU216HW,2013-07-27 13:27:00,
2013-07-27 08:32:00,59.8,54.6,29.27,North,0,1.8,4.9,83,0.00,,,0.00,WUHU216HW,2013-07-27 13:32:00,
2013-07-27 08:37:00,60.1,54.4,29.27,NW,315,1.6,6.5,81,0.00,,,0.00,WUHU216HW,2013-07-27 13:37:00,
2013-07-27 08:42:00,60.7,54.9,29.28,North,0,3.6,6.5,81,0.00,,,0.00,WUHU216HW,2013-07-27 13:42:00,
2013-07-27 08:47:00,61.0,54.9,29.28,NW,315,5.4,5.4,80,0.00,,,0.00,WUHU216HW,2013-07-27 13:47:00,
2013-07-27 08:52:00,61.4,55.2,29.28,NW,315,1.8,5.4,80,0.00,,,0.00,WUHU216HW,2013-07-27 13:52:00,
2013-07-27 08:57:00,61.7,55.2,29.28,NW,315,2.2,4.0,79,0.00,,,0.00,WUHU216HW,2013-07-27 13:57:00,
2013-07-27 09:02:00,61.9,54.3,29.27,NNW,338,4.7,5.8,76,0.00,,,0.00,WUHU216HW,2013-07-27 14:02:00,
2013-07-27 09:07:00,62.3,54.5,29.27,WNW,293,1.8,5.8,76,0.00,,,0.00,WUHU216HW,2013-07-27 14:07:00,
2013-07-27 09:13:00,62.5,53.6,29.28,North,0,2.0,4.9,73,0.00,,,0.00,WUHU216HW,2013-07-27 14:13:00,
2013-07-27 09:18:00,62.6,53.8,29.27,NE,45,3.8,6.0,73,0.00,,,0.00,WUHU216HW,2013-07-27 14:18:00,
2013-07-27 09:23:00,62.6,53.5,29.27,NW,315,5.4,6.0,72,0.00,,,0.00,WUHU216HW,2013-07-27 14:23:00,
2013-07-27 09:28:00,63.0,54.5,29.27,NNW,338,4.3,5.4,74,0.00,,,0.00,WUHU216HW,2013-07-27 14:28:00,
2013-07-27 09:33:00,63.5,55.1,29.27,NW,315,0.7,5.4,74,0.00,,,0.00,WUHU216HW,2013-07-27 14:33:00,
2013-07-27 09:38:00,64.1,55.6,29.27,WNW,293,3.6,5.1,74,0.00,,,0.00,WUHU216HW,2013-07-27 14:38:00,
2013-07-27 09:43:00,64.4,55.3,29.27,NNE,23,2.5,5.4,72,0.00,,,0.00,WUHU216HW,2013-07-27 14:43:00,
2013-07-27 09:48:00,64.6,54.3,29.27,NNW,338,3.6,6.0,69,0.00,,,0.00,WUHU216HW,2013-07-27 14:48:00,
2013-07-27 09:53:00,64.8,52.8,29.27,WNW,293,3.6,6.0,65,0.00,,,0.00,WUHU216HW,2013-07-27 14:53:00,
2013-07-27 09:58:00,65.5,54.3,29.27,WNW,293,2.5,5.1,67,0.00,,,0.00,WUHU216HW,2013-07-27 14:58:00,
2013-07-27 10:03:00,65.9,54.5,29.27,WNW,293,3.4,4.5,67,0.00,,,0.00,WUHU216HW,2013-07-27 15:03:00,
2013-07-27 10:09:00,66.1,53.5,29.27,North,0,2.5,6.3,64,0.00,,,0.00,WUHU216HW,2013-07-27 15:09:00,
2013-07-27 10:14:00,65.7,53.6,29.27,NW,315,4.0,6.3,65,0.00,,,0.00,WUHU216HW,2013-07-27 15:14:00,
2013-07-27 10:19:00,65.9,51.7,29.27,North,0,2.2,4.9,60,0.00,,,0.00,WUHU216HW,2013-07-27 15:19:00,
2013-07-27 10:24:00,65.9,52.9,29.27,NW,315,1.8,6.7,63,0.00,,,0.00,WUHU216HW,2013-07-27 15:24:00,
2013-07-27 10:29:00,65.9,53.4,29.27,NW,315,1.1,6.7,64,0.00,,,0.00,WUHU216HW,2013-07-27 15:29:00,
2013-07-27 10:34:00,66.2,52.8,29.27,North,0,1.1,4.0,62,0.00,,,0.00,WUHU216HW,2013-07-27 15:34:00,
2013-07-27 10:39:00,66.8,53.7,29.27,North,0,5.6,5.6,63,0.00,,,0.00,WUHU216HW,2013-07-27 15:39:00,
2013-07-27 10:44:00,67.0,52.7,29.27,WNW,293,4.9,5.8,60,0.00,,,0.00,WUHU216HW,2013-07-27 15:44:00,
2013-07-27 10:49:00,67.5,53.2,29.27,WSW,248,3.4,5.8,60,0.00,,,0.00,WUHU216HW,2013-07-27 15:49:00,
2013-07-27 10:54:00,67.9,52.5,29.27,WNW,293,4.0,6.3,58,0.00,,,0.00,WUHU216HW,2013-07-27 15:54:00,
2013-07-27 10:59:00,67.5,50.8,29.27,NNW,338,2.7,6.3,55,0.00,,,0.00,WUHU216HW,2013-07-27 15:59:00,
2013-07-27 11:04:00,67.5,50.8,29.27,WNW,293,6.3,6.5,55,0.00,,,0.00,WUHU216HW,2013-07-27 16:04:00,
2013-07-27 11:09:00,67.7,52.8,29.27,NNE,23,2.7,6.5,59,0.00,,,0.00,WUHU216HW,2013-07-27 16:09:00,
2013-07-27 11:14:00,67.7,50.0,29.27,North,0,2.0,4.7,53,0.00,,,0.00,WUHU216HW,2013-07-27 16:14:00,
2013-07-27 11:20:00,67.5,50.8,29.27,WNW,293,2.5,4.7,55,0.00,,,0.00,WUHU216HW,2013-07-27 16:20:00,
2013-07-27 11:25:00,67.5,49.2,29.27,NNE,23,2.9,5.4,52,0.00,,,0.00,WUHU216HW,2013-07-27 16:25:00,
2013-07-27 11:30:00,67.3,50.6,29.27,NW,315,2.9,5.4,55,0.00,,,0.00,WUHU216HW,2013-07-27 16:30:00,
2013-07-27 11:35:00,67.7,51.4,29.27,NW,315,3.4,7.6,56,0.00,,,0.00,WUHU216HW,2013-07-27 16:35:00,
2013-07-27 11:40:00,68.2,50.9,29.27,NNE,23,2.2,7.6,54,0.00,,,0.00,WUHU216HW,2013-07-27 16:40:00,
2013-07-27 11:45:00,67.7,51.4,29.27,NNE,23,3.4,6.9,56,0.00,,,0.00,WUHU216HW,2013-07-27 16:45:00,
2013-07-27 11:50:00,67.3,49.6,29.27,North,0,6.3,7.4,53,0.00,,,0.00,WUHU216HW,2013-07-27 16:50:00,
2013-07-27 11:55:00,67.7,50.0,29.26,WNW,293,5.6,7.6,53,0.00,,,0.00,WUHU216HW,2013-07-27 16:55:00,
2013-07-27 12:00:00,67.5,51.2,29.26,NW,315,2.5,7.6,56,0.00,,,0.00,WUHU216HW,2013-07-27 17:00:00,
2013-07-27 12:05:00,67.7,51.4,29.26,NW,315,2.9,6.5,56,0.00,,,0.00,WUHU216HW,2013-07-27 17:05:00,
2013-07-27 12:10:00,68.4,51.0,29.26,NNW,338,6.0,6.0,54,0.00,,,0.00,WUHU216HW,2013-07-27 17:10:00,
2013-07-27 12:15:00,68.6,50.8,29.26,NW,315,5.4,6.3,53,0.00,,,0.00,WUHU216HW,2013-07-27 17:15:00,
2013-07-27 12:20:00,68.8,50.0,29.26,SSW,203,2.0,8.7,51,0.00,,,0.00,WUHU216HW,2013-07-27 17:20:00,
2013-07-27 12:25:00,69.1,50.8,29.26,WNW,293,3.1,8.7,52,0.00,,,0.00,WUHU216HW,2013-07-27 17:25:00,
2013-07-27 12:30:00,69.7,51.2,29.25,NNE,23,4.7,6.3,52,0.00,,,0.00,WUHU216HW,2013-07-27 17:30:00,
2013-07-27 12:35:00,70.2,51.8,29.25,NNW,338,2.0,5.4,52,0.00,,,0.00,WUHU216HW,2013-07-27 17:35:00,
2013-07-27 12:40:00,69.7,52.3,29.25,WNW,293,3.4,6.0,54,0.00,,,0.00,WUHU216HW,2013-07-27 17:40:00,
2013-07-27 12:45:00,69.1,50.2,29.25,West,270,2.5,9.6,51,0.00,,,0.00,WUHU216HW,2013-07-27 17:45:00,
2013-07-27 12:50:00,68.9,50.6,29.25,WNW,293,2.5,9.6,52,0.00,,,0.00,WUHU216HW,2013-07-27 17:50:00,
2013-07-27 12:56:00,68.9,51.1,29.26,NNW,338,2.0,7.6,53,0.00,,,0.00,WUHU216HW,2013-07-27 17:56:00,
2013-07-27 13:01:00,69.1,50.2,29.26,NW,315,2.7,7.6,51,0.00,,,0.00,WUHU216HW,2013-07-27 18:01:00,
2013-07-27 13:06:00,69.3,51.0,29.26,West,270,5.6,7.6,52,0.00,,,0.00,WUHU216HW,2013-07-27 18:06:00,
2013-07-27 13:11:00,69.8,51.0,29.26,NNW,338,4.9,6.9,51,0.00,,,0.00,WUHU216HW,2013-07-27 18:11:00,
2013-07-27 13:17:00,70.4,51.4,29.26,NNE,23,2.0,6.9,51,0.00,,,0.00,WUHU216HW,2013-07-27 18:17:00,
2013-07-27 13:22:00,70.4,50.9,29.26,West,270,3.1,6.5,50,0.00,,,0.00,WUHU216HW,2013-07-27 18:22:00,
2013-07-27 13:27:00,70.4,50.9,29.26,NNW,338,5.4,6.3,50,0.00,,,0.00,WUHU216HW,2013-07-27 18:27:00,
2013-07-27 13:32:00,69.8,50.4,29.26,SW,225,4.0,5.8,50,0.00,,,0.00,WUHU216HW,2013-07-27 18:32:00,
2013-07-27 13:37:00,68.8,48.9,29.26,WSW,248,4.0,6.3,49,0.00,,,0.00,WUHU216HW,2013-07-27 18:37:00,
2013-07-27 13:42:00,68.9,50.6,29.26,West,270,2.5,6.3,52,0.00,,,0.00,WUHU216HW,2013-07-27 18:42:00,
2013-07-27 13:47:00,68.9,49.6,29.26,NNE,23,4.9,5.4,50,0.00,,,0.00,WUHU216HW,2013-07-27 18:47:00,
2013-07-27 13:52:00,68.9,50.6,29.26,NNW,338,4.5,6.7,52,0.00,,,0.00,WUHU216HW,2013-07-27 18:52:00,
2013-07-27 13:57:00,69.7,50.2,29.26,NNW,338,6.7,6.7,50,0.00,,,0.00,WUHU216HW,2013-07-27 18:57:00,
2013-07-27 14:02:00,69.8,51.9,29.26,NW,315,1.8,6.7,53,0.00,,,0.00,WUHU216HW,2013-07-27 19:02:00,
2013-07-27 14:07:00,70.4,52.9,29.26,NW,315,1.8,4.9,54,0.00,,,0.00,WUHU216HW,2013-07-27 19:07:00,
2013-07-27 14:12:00,70.2,49.5,29.26,WNW,293,3.6,3.8,48,0.00,,,0.00,WUHU216HW,2013-07-27 19:12:00,
2013-07-27 14:17:00,69.3,49.3,29.26,North,0,3.8,3.8,49,0.00,,,0.00,WUHU216HW,2013-07-27 19:17:00,
2013-07-27 14:22:00,68.4,48.5,29.26,North,0,1.3,4.0,49,0.00,,,0.00,WUHU216HW,2013-07-27 19:22:00,
2013-07-27 14:27:00,68.2,49.4,29.26,West,270,3.1,3.6,51,0.00,,,0.00,WUHU216HW,2013-07-27 19:27:00,
2013-07-27 14:32:00,68.6,49.2,29.26,WNW,293,2.2,4.0,50,0.00,,,0.00,WUHU216HW,2013-07-27 19:32:00,
2013-07-27 14:38:00,68.9,49.0,29.26,SE,135,3.4,4.0,49,0.00,,,0.00,WUHU216HW,2013-07-27 19:38:00,
2013-07-27 14:43:00,69.1,49.1,29.26,North,0,2.7,5.6,49,0.00,,,0.00,WUHU216HW,2013-07-27 19:43:00,
2013-07-27 14:48:00,69.3,51.0,29.26,NNE,23,5.4,5.6,52,0.00,,,0.00,WUHU216HW,2013-07-27 19:48:00,
2013-07-27 14:53:00,70.2,50.8,29.26,NNW,338,4.5,5.4,50,0.00,,,0.00,WUHU216HW,2013-07-27 19:53:00,
2013-07-27 14:58:00,70.6,51.6,29.26,WSW,248,2.0,4.5,51,0.00,,,0.00,WUHU216HW,2013-07-27 19:58:00,
2013-07-27 15:03:00,70.2,51.2,29.26,NNW,338,3.1,4.3,51,0.00,,,0.00,WUHU216HW,2013-07-27 20:03:00,
2013-07-27 15:08:00,70.2,50.8,29.26,NW,315,2.5,4.5,50,0.00,,,0.00,WUHU216HW,2013-07-27 20:08:00,
2013-07-27 15:13:00,69.8,49.8,29.25,SSW,203,5.1,7.4,49,0.00,,,0.00,WUHU216HW,2013-07-27 20:13:00,
2013-07-27 15:18:00,69.7,50.8,29.25,WSW,248,1.3,7.4,51,0.00,,,0.00,WUHU216HW,2013-07-27 20:18:00,
2013-07-27 15:23:00,70.2,51.8,29.25,ESE,113,2.2,5.1,52,0.00,,,0.00,WUHU216HW,2013-07-27 20:23:00,
2013-07-27 15:28:00,70.2,50.8,29.25,NNE,23,2.0,4.9,50,0.00,,,0.00,WUHU216HW,2013-07-27 20:28:00,
2013-07-27 15:33:00,70.7,51.2,29.25,NNW,338,1.8,5.4,50,0.00,,,0.00,WUHU216HW,2013-07-27 20:33:00,
2013-07-27 15:39:00,70.7,51.2,29.25,WSW,248,3.1,5.4,50,0.00,,,0.00,WUHU216HW,2013-07-27 20:39:00,
2013-07-27 15:43:00,70.2,51.2,29.24,NW,315,2.0,7.8,51,0.00,,,0.00,WUHU216HW,2013-07-27 20:43:00,
2013-07-27 15:48:00,69.7,50.2,29.24,NW,315,1.3,7.8,50,0.00,,,0.00,WUHU216HW,2013-07-27 20:48:00,
2013-07-27 15:54:00,69.5,50.6,29.24,West,270,2.5,6.3,51,0.00,,,0.00,WUHU216HW,2013-07-27 20:54:00,
2013-07-27 15:59:00,70.2,50.8,29.24,NNW,338,2.7,5.8,50,0.00,,,0.00,WUHU216HW,2013-07-27 20:59:00,
2013-07-27 16:04:00,70.7,50.6,29.24,NNW,338,2.2,4.7,49,0.00,,,0.00,WUHU216HW,2013-07-27 21:04:00,
2013-07-27 16:09:00,70.2,50.1,29.24,WNW,293,5.1,5.1,49,0.00,,,0.00,WUHU216HW,2013-07-27 21:09:00,
2013-07-27 16:14:00,69.1,50.2,29.24,NW,315,2.5,5.1,51,0.00,,,0.00,WUHU216HW,2013-07-27 21:14:00,
2013-07-27 16:19:00,69.3,51.0,29.24,NW,315,1.1,5.1,52,0.00,,,0.00,WUHU216HW,2013-07-27 21:19:00,
2013-07-27 16:24:00,69.8,51.9,29.24,NW,315,1.1,4.5,53,0.00,,,0.00,WUHU216HW,2013-07-27 21:24:00,
2013-07-27 16:29:00,70.2,50.8,29.24,NNW,338,4.0,4.5,50,0.00,,,0.00,WUHU216HW,2013-07-27 21:29:00,
2013-07-27 16:34:00,70.2,51.2,29.24,NW,315,2.0,4.0,51,0.00,,,0.00,WUHU216HW,2013-07-27 21:34:00,
2013-07-27 16:39:00,70.6,51.0,29.23,NNW,338,3.4,4.0,50,0.00,,,0.00,WUHU216HW,2013-07-27 21:39:00,
2013-07-27 16:44:00,70.6,51.0,29.24,West,270,2.0,4.7,50,0.00,,,0.00,WUHU216HW,2013-07-27 21:44:00,
2013-07-27 16:49:00,70.9,50.8,29.24,WNW,293,3.4,5.6,49,0.00,,,0.00,WUHU216HW,2013-07-27 21:49:00,
2013-07-27 16:54:00,70.7,51.2,29.23,WNW,293,1.8,5.6,50,0.00,,,0.00,WUHU216HW,2013-07-27 21:54:00,
2013-07-27 16:59:00,70.0,51.0,29.24,WSW,248,1.6,7.6,51,0.00,,,0.00,WUHU216HW,2013-07-27 21:59:00,
2013-07-27 17:05:00,69.8,51.0,29.24,NW,315,1.8,7.6,51,0.00,,,0.00,WUHU216HW,2013-07-27 22:05:00,
2013-07-27 17:10:00,70.4,51.9,29.24,NW,315,2.9,4.7,52,0.00,,,0.00,WUHU216HW,2013-07-27 22:10:00,
2013-07-27 17:15:00,70.4,51.9,29.24,NW,315,0.9,4.7,52,0.00,,,0.00,WUHU216HW,2013-07-27 22:15:00,
2013-07-27 17:20:00,70.4,52.4,29.24,NW,315,0.9,2.9,53,0.00,,,0.00,WUHU216HW,2013-07-27 22:20:00,
2013-07-27 17:25:00,70.9,52.4,29.24,WNW,293,0.7,2.5,52,0.00,,,0.00,WUHU216HW,2013-07-27 22:25:00,
2013-07-27 17:30:00,70.9,52.4,29.23,ENE,68,4.0,4.0,52,0.00,,,0.00,WUHU216HW,2013-07-27 22:30:00,
2013-07-27 17:35:00,70.0,50.6,29.23,WNW,293,2.5,4.9,50,0.00,,,0.00,WUHU216HW,2013-07-27 22:35:00,
2013-07-27 17:40:00,69.3,50.0,29.23,West,270,1.8,4.9,50,0.00,,,0.00,WUHU216HW,2013-07-27 22:40:00,
2013-07-27 17:45:00,68.9,50.6,29.23,NW,315,2.2,3.4,52,0.00,,,0.00,WUHU216HW,2013-07-27 22:45:00,
2013-07-27 17:50:00,68.8,51.0,29.23,West,270,2.2,3.1,53,0.00,,,0.00,WUHU216HW,2013-07-27 22:50:00,
2013-07-27 17:55:00,69.1,51.2,29.23,North,0,1.8,3.4,53,0.00,,,0.00,WUHU216HW,2013-07-27 22:55:00,
2013-07-27 18:00:00,69.5,51.6,29.23,WNW,293,1.1,3.4,53,0.00,,,0.00,WUHU216HW,2013-07-27 23:00:00,
2013-07-27 18:05:00,69.3,51.4,29.23,SW,225,1.3,3.4,53,0.00,,,0.00,WUHU216HW,2013-07-27 23:05:00,
2013-07-27 18:11:00,69.1,50.2,29.23,NNE,23,2.2,5.1,51,0.00,,,0.00,WUHU216HW,2013-07-27 23:11:00,
2013-07-27 18:16:00,69.7,50.8,29.23,ENE,68,2.7,5.1,51,0.00,,,0.00,WUHU216HW,2013-07-27 23:16:00,
2013-07-27 18:21:00,71.3,50.5,29.23,NW,315,2.0,5.4,48,0.00,,,0.00,WUHU216HW,2013-07-27 23:21:00,
2013-07-27 18:26:00,72.4,52.1,29.23,West,270,1.1,5.4,49,0.00,,,0.00,WUHU216HW,2013-07-27 23:26:00,
2013-07-27 18:31:00,73.6,52.7,29.23,NNE,23,1.1,4.9,48,0.00,,,0.00,WUHU216HW,2013-07-27 23:31:00,
2013-07-27 18:36:00,70.9,50.8,29.23,NW,315,2.2,4.3,49,0.00,,,0.00,WUHU216HW,2013-07-27 23:36:00,
2013-07-27 18:41:00,69.1,50.2,29.23,West,270,2.5,4.7,51,0.00,,,0.00,WUHU216HW,2013-07-27 23:41:00,
2013-07-27 18:47:00,68.0,50.8,29.23,North,0,2.5,4.7,54,0.00,,,0.00,WUHU216HW,2013-07-27 23:47:00,
2013-07-27 18:52:00,67.1,50.4,29.23,NW,315,1.8,4.7,55,0.00,,,0.00,WUHU216HW,2013-07-27 23:52:00,
2013-07-27 18:57:00,66.6,50.4,29.23,West,270,0.4,3.4,56,0.00,,,0.00,WUHU216HW,2013-07-27 23:57:00,
2013-07-27 19:02:00,66.4,50.8,29.23,NNW,338,0.7,1.8,57,0.00,,,0.00,WUHU216HW,2013-07-28 00:02:00,
2013-07-27 19:07:00,66.2,51.0,29.24,NNW,338,1.1,3.8,58,0.00,,,0.00,WUHU216HW,2013-07-28 00:07:00,
2013-07-27 19:12:00,66.4,50.8,29.23,NNW,338,1.6,3.8,57,0.00,,,0.00,WUHU216HW,2013-07-28 00:12:00,
2013-07-27 19:17:00,66.1,50.4,29.24,NW,315,1.8,3.4,57,0.00,,,0.00,WUHU216HW,2013-07-28 00:17:00,
2013-07-27 19:22:00,65.7,50.5,29.24,WNW,293,1.6,2.7,58,0.00,,,0.00,WUHU216HW,2013-07-28 00:22:00,
2013-07-27 19:27:00,65.3,50.1,29.24,WNW,293,2.2,3.6,58,0.00,,,0.00,WUHU216HW,2013-07-28 00:27:00,
2013-07-27 19:32:00,65.3,50.7,29.24,NNW,338,0.4,3.6,59,0.00,,,0.00,WUHU216HW,2013-07-28 00:32:00,
2013-07-27 19:37:00,65.2,50.5,29.24,NNW,338,0.2,2.7,59,0.00,,,0.00,WUHU216HW,2013-07-28 00:37:00,
2013-07-27 19:42:00,64.8,50.1,29.24,NW,315,1.1,2.9,59,0.00,,,0.00,WUHU216HW,2013-07-28 00:42:00,
2013-07-27 19:48:00,64.4,50.7,29.24,North,0,0.0,2.9,61,0.00,,,0.00,WUHU216HW,2013-07-28 00:48:00,
2013-07-27 19:53:00,63.9,50.6,29.24,North,0,0.2,2.5,62,0.00,,,0.00,WUHU216HW,2013-07-28 00:53:00,
2013-07-27 19:58:00,63.4,50.5,29.24,NNW,338,0.0,3.1,63,0.00,,,0.00,WUHU216HW,2013-07-28 00:58:00,
2013-07-27 20:03:00,63.0,51.0,29.24,North,0,3.4,3.4,65,0.00,,,0.00,WUHU216HW,2013-07-28 01:03:00,
2013-07-27 20:08:00,62.6,50.7,29.25,NW,315,1.8,3.4,65,0.00,,,0.00,WUHU216HW,2013-07-28 01:08:00,
2013-07-27 20:13:00,62.1,50.2,29.24,North,0,0.0,3.4,65,0.00,,,0.00,WUHU216HW,2013-07-28 01:13:00,
2013-07-27 20:18:00,61.7,50.3,29.25,North,0,0.0,1.3,66,0.00,,,0.00,WUHU216HW,2013-07-28 01:18:00,
2013-07-27 20:23:00,61.4,50.0,29.25,NNW,338,0.4,1.6,66,0.00,,,0.00,WUHU216HW,2013-07-28 01:23:00,
2013-07-27 20:28:00,61.0,49.6,29.24,NNW,338,0.2,1.6,66,0.00,,,0.00,WUHU216HW,2013-07-28 01:28:00,
2013-07-27 20:33:00,60.5,49.2,29.24,NNW,338,0.0,1.1,66,0.00,,,0.00,WUHU216HW,2013-07-28 01:33:00,
2013-07-27 20:38:00,60.3,49.0,29.24,NNW,338,0.0,0.7,66,0.00,,,0.00,WUHU216HW,2013-07-28 01:38:00,
2013-07-27 20:43:00,60.1,48.8,29.24,NNW,338,0.0,0.2,66,0.00,,,0.00,WUHU216HW,2013-07-28 01:43:00,
2013-07-27 20:48:00,59.9,48.6,29.24,NNW,338,0.0,0.0,66,0.00,,,0.00,WUHU216HW,2013-07-28 01:48:00,
2013-07-27 20:53:00,59.6,48.6,29.24,NNW,338,0.0,0.0,67,0.00,,,0.00,WUHU216HW,2013-07-28 01:53:00,
2013-07-27 20:58:00,59.2,48.2,29.25,NNW,338,0.0,0.0,67,0.00,,,0.00,WUHU216HW,2013-07-28 01:58:00,
2013-07-27 21:03:00,58.9,48.3,29.25,NNW,338,0.0,0.0,68,0.00,,,0.00,WUHU216HW,2013-07-28 02:03:00,
2013-07-27 21:09:00,58.5,48.3,29.25,NNW,338,0.0,0.0,69,0.00,,,0.00,WUHU216HW,2013-07-28 02:09:00,
2013-07-27 21:10:00,58.3,48.2,29.25,NNW,338,0.0,0.0,69,0.00,,,0.00,WUHU216HW,2013-07-28 02:10:00,
2013-07-27 21:15:00,57.8,48.1,29.25,NNW,338,0.0,0.2,70,0.00,,,0.00,WUHU216HW,2013-07-28 02:15:00,
2013-07-27 21:21:00,57.6,48.2,29.25,NNW,338,0.0,0.2,71,0.00,,,0.00,WUHU216HW,2013-07-28 02:21:00,
2013-07-27 21:26:00,57.2,47.9,29.25,NNW,338,0.0,0.0,71,0.00,,,0.00,WUHU216HW,2013-07-28 02:26:00,
2013-07-27 21:31:00,56.9,47.9,29.26,NNW,338,0.0,0.0,72,0.00,,,0.00,WUHU216HW,2013-07-28 02:31:00,
2013-07-27 21:36:00,56.7,47.7,29.26,NNW,338,0.0,0.0,72,0.00,,,0.00,WUHU216HW,2013-07-28 02:36:00,
2013-07-27 21:41:00,56.5,48.0,29.26,NNW,338,0.0,0.0,73,0.00,,,0.00,WUHU216HW,2013-07-28 02:41:00,
2013-07-27 21:46:00,56.2,47.6,29.26,NNW,338,0.0,0.0,73,0.00,,,0.00,WUHU216HW,2013-07-28 02:46:00,
2013-07-27 21:52:00,55.8,47.3,29.26,NNW,338,0.0,0.0,73,0.00,,,0.00,WUHU216HW,2013-07-28 02:52:00,
2013-07-27 21:57:00,55.6,47.4,29.26,NNW,338,0.0,0.0,74,0.00,,,0.00,WUHU216HW,2013-07-28 02:57:00,
2013-07-27 22:02:00,55.3,47.4,29.27,NNW,338,0.0,0.0,75,0.00,,,0.00,WUHU216HW,2013-07-28 03:02:00,
2013-07-27 22:07:00,55.1,47.3,29.26,NNW,338,0.0,0.0,75,0.00,,,0.00,WUHU216HW,2013-07-28 03:07:00,
2013-07-27 22:12:00,54.9,47.4,29.26,NNW,338,0.0,0.0,76,0.00,,,0.00,WUHU216HW,2013-07-28 03:12:00,
2013-07-27 22:17:00,54.7,47.3,29.26,NNW,338,0.0,0.0,76,0.00,,,0.00,WUHU216HW,2013-07-28 03:17:00,
2013-07-27 22:22:00,54.5,47.1,29.26,NNW,338,0.0,0.0,76,0.00,,,0.00,WUHU216HW,2013-07-28 03:22:00,
2013-07-27 22:27:00,54.4,46.6,29.26,NNW,338,0.0,0.0,75,0.00,,,0.00,WUHU216HW,2013-07-28 03:27:00,
2013-07-27 22:32:00,54.2,46.8,29.26,NNW,338,0.0,0.0,76,0.00,,,0.00,WUHU216HW,2013-07-28 03:32:00,
2013-07-27 22:37:00,54.0,47.0,29.26,NNW,338,0.0,0.0,77,0.00,,,0.00,WUHU216HW,2013-07-28 03:37:00,
2013-07-27 22:42:00,53.8,46.8,29.26,NNW,338,0.0,0.0,77,0.00,,,0.00,WUHU216HW,2013-07-28 03:42:00,
2013-07-27 22:47:00,53.6,46.6,29.26,NNW,338,0.0,0.0,77,0.00,,,0.00,WUHU216HW,2013-07-28 03:47:00,
2013-07-27 22:53:00,53.5,46.8,29.26,NNW,338,0.0,0.0,78,0.00,,,0.00,WUHU216HW,2013-07-28 03:53:00,
2013-07-27 22:58:00,53.5,46.8,29.26,NNW,338,0.0,0.0,78,0.00,,,0.00,WUHU216HW,2013-07-28 03:58:00,
2013-07-27 23:01:00,53.3,46.6,29.26,NNW,338,0.0,0.0,78,0.00,,,0.00,WUHU216HW,2013-07-28 04:01:00,
2013-07-27 23:02:00,53.3,46.6,29.26,NNW,338,0.0,0.0,78,0.00,,,0.00,WUHU216HW,2013-07-28 04:02:00,
2013-07-27 23:07:00,53.1,46.4,29.26,NNW,338,0.0,0.0,78,0.00,,,0.00,WUHU216HW,2013-07-28 04:07:00,
2013-07-27 23:12:00,52.9,46.3,29.26,NNW,338,0.0,0.0,78,0.00,,,0.00,WUHU216HW,2013-07-28 04:12:00,
2013-07-27 23:17:00,52.7,46.1,29.26,NNW,338,0.0,0.0,78,0.00,,,0.00,WUHU216HW,2013-07-28 04:17:00,
2013-07-27 23:22:00,52.6,46.3,29.25,NNW,338,0.0,0.0,79,0.00,,,0.00,WUHU216HW,2013-07-28 04:22:00,
2013-07-27 23:27:00,52.4,46.1,29.26,NNW,338,0.0,0.0,79,0.00,,,0.00,WUHU216HW,2013-07-28 04:27:00,
2013-07-27 23:32:00,52.4,46.1,29.25,NNW,338,0.0,0.0,79,0.00,,,0.00,WUHU216HW,2013-07-28 04:32:00,
2013-07-27 23:37:00,52.2,46.3,29.26,NNW,338,0.0,0.0,80,0.00,,,0.00,WUHU216HW,2013-07-28 04:37:00,
2013-07-27 23:42:00,52.2,46.5,29.26,NNW,338,0.0,0.0,81,0.00,,,0.00,WUHU216HW,2013-07-28 04:42:00,
2013-07-27 23:47:00,52.0,46.1,29.26,NNW,338,0.0,0.0,80,0.00,,,0.00,WUHU216HW,2013-07-28 04:47:00,
2013-07-27 23:52:00,52.0,46.1,29.26,NNW,338,0.0,0.0,80,0.00,,,0.00,WUHU216HW,2013-07-28 04:52:00,
2013-07-27 23:57:00,51.8,45.9,29.26,NNW,338,0.0,0.0,80,0.00,,,0.00,WUHU216HW,2013-07-28 04:57:00,